Time;durP1;ratioP1;P1;durP2;ratioP2;P2;SDS_P1;SDS_P2;PMS_P1;PMS_P2;Temp;Humidity;BMP_temperature;BMP_pressure;BME280_temperature;BME280_humidity;BME280_pressure;Samples;Min_cycle;Max_cycle;Signal;HPM_P1;HPM_P2
2021/04/07 00:01:47;;;;;;;5.13;3.00;;;1.80;91.40;;;;;;5001257;28;20175;-83
2021/04/07 00:04:13;;;;;;;5.77;2.63;;;1.70;92.10;;;;;;5000998;28;20215;-82
2021/04/07 00:06:40;;;;;;;6.25;2.88;;;1.80;92.00;;;;;;5001401;28;20419;-82
2021/04/07 00:09:09;;;;;;;3.53;2.88;;;1.80;91.60;;;;;;4993493;28;20175;-79
2021/04/07 00:11:35;;;;;;;12.00;2.92;;;1.80;92.00;;;;;;4992021;28;20173;-80
2021/04/07 00:14:03;;;;;;;8.70;3.50;;;1.80;92.00;;;;;;4991798;28;20175;-79
2021/04/07 00:16:29;;;;;;;3.65;2.30;;;1.80;91.20;;;;;;4994434;28;20178;-79
2021/04/07 00:18:55;;;;;;;10.40;3.80;;;1.70;91.80;;;;;;4994906;28;20175;-79
2021/04/07 00:21:21;;;;;;;7.30;3.00;;;1.70;91.60;;;;;;4994833;28;20381;-79
2021/04/07 00:23:47;;;;;;;5.70;2.97;;;1.70;91.90;;;;;;4994594;28;21024;-80
2021/04/07 00:26:13;;;;;;;4.95;2.33;;;1.70;92.60;;;;;;4995218;28;20537;-79
2021/04/07 00:28:39;;;;;;;5.50;3.30;;;1.80;92.40;;;;;;4994847;28;20207;-79
2021/04/07 00:31:04;;;;;;;4.83;3.43;;;1.80;92.20;;;;;;4995681;28;20175;-79
2021/04/07 00:33:30;;;;;;;9.30;2.70;;;1.80;91.80;;;;;;4995132;28;20463;-79
2021/04/07 00:35:56;;;;;;;12.00;3.13;;;1.80;91.60;;;;;;4994720;28;20417;-79
2021/04/07 00:38:22;;;;;;;5.03;2.77;;;1.80;92.00;;;;;;4995533;28;20183;-79
2021/04/07 00:40:48;;;;;;;4.88;2.90;;;1.80;91.60;;;;;;4996958;28;20449;-79
2021/04/07 00:43:14;;;;;;;6.32;2.65;;;1.70;91.30;;;;;;4995350;28;20565;-79
2021/04/07 00:45:40;;;;;;;9.60;3.37;;;1.60;91.60;;;;;;4996295;28;20316;-79
2021/04/07 00:48:06;;;;;;;3.17;2.20;;;1.60;92.10;;;;;;4996170;28;20807;-82
2021/04/07 00:50:33;;;;;;;3.85;2.45;;;1.60;91.90;;;;;;5005894;28;20437;-82
2021/04/07 00:52:59;;;;;;;5.30;2.85;;;1.60;92.20;;;;;;5002902;28;20264;-82
2021/04/07 00:55:32;;;;;;;3.60;2.35;;;1.50;92.30;;;;;;5003938;28;20303;-82
2021/04/07 00:57:59;;;;;;;5.82;3.05;;;1.50;92.40;;;;;;5002343;28;20175;-82
2021/04/07 01:00:25;;;;;;;9.50;2.95;;;1.50;92.60;;;;;;5002443;28;20183;-82
2021/04/07 01:02:56;;;;;;;7.60;2.70;;;1.50;93.40;;;;;;5002511;28;20249;-82
2021/04/07 01:05:22;;;;;;;4.55;2.70;;;1.50;93.60;;;;;;5004235;28;20172;-82
2021/04/07 01:07:48;;;;;;;6.75;3.15;;;1.60;93.90;;;;;;5004619;28;20202;-82
2021/04/07 01:10:16;;;;;;;5.57;2.30;;;1.60;93.60;;;;;;5001493;28;20243;-82
2021/04/07 01:12:42;;;;;;;10.40;3.53;;;1.50;93.80;;;;;;5004202;28;20205;-82
2021/04/07 01:15:09;;;;;;;4.45;3.13;;;1.50;94.60;;;;;;5005841;28;20239;-82
2021/04/07 01:17:35;;;;;;;4.60;2.80;;;1.40;95.40;;;;;;5005908;28;20190;-83
2021/04/07 01:20:09;;;;;;;9.13;3.38;;;1.50;95.10;;;;;;5006817;28;20187;-83
2021/04/07 01:22:36;;;;;;;7.75;3.78;;;1.50;95.00;;;;;;5005875;28;20553;-84
2021/04/07 01:25:05;;;;;;;3.70;2.35;;;1.50;93.30;;;;;;5005614;28;20195;-83
2021/04/07 01:27:31;;;;;;;6.13;2.53;;;1.40;94.10;;;;;;5004450;28;20256;-83
2021/04/07 01:29:57;;;;;;;8.90;3.80;;;1.50;94.00;;;;;;5005650;28;20171;-84
2021/04/07 01:32:23;;;;;;;5.47;3.30;;;1.50;93.80;;;;;;5005891;28;20199;-84
2021/04/07 01:34:49;;;;;;;10.90;2.33;;;1.40;93.30;;;;;;5005809;28;20921;-84
2021/04/07 01:37:16;;;;;;;5.43;3.45;;;1.50;93.50;;;;;;5005352;28;20588;-84
2021/04/07 01:39:42;;;;;;;3.22;2.70;;;1.50;92.50;;;;;;5005316;28;20639;-84
2021/04/07 01:42:09;;;;;;;7.43;2.58;;;1.40;92.30;;;;;;5004556;28;20206;-84
2021/04/07 01:44:38;;;;;;;5.20;3.03;;;1.40;92.60;;;;;;5004136;28;20180;-84
2021/04/07 01:47:05;;;;;;;5.15;2.85;;;1.30;92.40;;;;;;5004557;28;20230;-83
2021/04/07 01:49:32;;;;;;;6.15;3.47;;;1.30;91.90;;;;;;5002242;28;20544;-81
2021/04/07 01:51:59;;;;;;;5.20;2.80;;;1.30;91.40;;;;;;5003638;28;20207;-81
2021/04/07 01:54:25;;;;;;;9.77;3.38;;;1.30;91.70;;;;;;5001864;28;20168;-81
2021/04/07 01:56:53;;;;;;;9.25;3.50;;;1.30;91.40;;;;;;5003147;28;20176;-81
2021/04/07 01:59:24;;;;;;;8.60;3.58;;;1.20;91.50;;;;;;5002399;28;20252;-80
2021/04/07 02:01:52;;;;;;;9.07;4.03;;;1.20;91.40;;;;;;5001986;28;20224;-81
2021/04/07 02:04:18;;;;;;;6.05;3.15;;;1.20;91.40;;;;;;5003461;28;20172;-80
2021/04/07 02:06:44;;;;;;;8.38;4.10;;;1.10;90.90;;;;;;5002613;28;20591;-80
2021/04/07 02:09:12;;;;;;;9.98;3.70;;;1.10;91.60;;;;;;5002575;28;20298;-80
2021/04/07 02:11:42;;;;;;;7.07;3.45;;;1.20;91.10;;;;;;5002483;28;20171;-81
2021/04/07 02:14:19;;;;;;;6.55;3.80;;;1.10;90.90;;;;;;5002208;28;20262;-81
2021/04/07 02:17:05;;;;;;;7.10;4.07;;;1.10;91.00;;;;;;5001791;28;20178;-81
2021/04/07 02:19:34;;;;;;;10.07;3.30;;;1.20;91.00;;;;;;5002297;28;20198;-81
2021/04/07 02:22:05;;;;;;;9.10;4.55;;;1.20;90.40;;;;;;5002779;28;20195;-80
2021/04/07 02:24:31;;;;;;;6.93;3.60;;;1.20;90.70;;;;;;5002647;28;20239;-81
2021/04/07 02:26:59;;;;;;;6.60;3.53;;;1.30;90.40;;;;;;5001832;28;20204;-81
2021/04/07 02:29:25;;;;;;;5.70;3.33;;;1.30;90.20;;;;;;5002943;28;20186;-81
2021/04/07 02:31:51;;;;;;;9.43;4.27;;;1.30;90.10;;;;;;5003060;28;20187;-81
2021/04/07 02:34:17;;;;;;;11.10;4.27;;;1.30;90.10;;;;;;5002927;28;20448;-81
2021/04/07 02:36:43;;;;;;;10.90;4.35;;;1.20;89.90;;;;;;5001813;28;20410;-81
2021/04/07 02:39:09;;;;;;;5.30;3.53;;;1.20;90.10;;;;;;5002049;28;20724;-82
2021/04/07 02:41:35;;;;;;;7.78;4.32;;;1.20;90.10;;;;;;5001330;28;20450;-81
2021/04/07 02:44:01;;;;;;;6.20;3.78;;;1.20;90.70;;;;;;5001588;28;20174;-82
2021/04/07 02:46:27;;;;;;;10.13;4.33;;;1.20;90.10;;;;;;5001816;28;20175;-81
2021/04/07 02:48:53;;;;;;;7.90;3.78;;;1.20;89.20;;;;;;5002227;28;20440;-81
2021/04/07 02:51:19;;;;;;;10.25;4.95;;;1.10;89.40;;;;;;5001368;28;20175;-81
2021/04/07 02:53:45;;;;;;;6.20;3.63;;;1.10;90.10;;;;;;5002118;28;20254;-81
2021/04/07 02:56:11;;;;;;;14.77;3.67;;;1.20;90.30;;;;;;5000855;28;20721;-81
2021/04/07 02:58:37;;;;;;;10.52;4.75;;;1.20;90.50;;;;;;5001780;28;20201;-81
2021/04/07 03:01:03;;;;;;;8.23;3.92;;;1.20;90.30;;;;;;5001869;28;20175;-81
2021/04/07 03:03:29;;;;;;;9.38;4.68;;;1.20;90.20;;;;;;5000467;28;20199;-81
2021/04/07 03:05:56;;;;;;;10.07;4.60;;;1.30;90.10;;;;;;5000159;28;20204;-81
2021/04/07 03:08:24;;;;;;;12.35;4.18;;;1.30;90.10;;;;;;5000673;28;20647;-82
2021/04/07 03:10:50;;;;;;;20.75;5.22;;;1.30;88.80;;;;;;5000389;28;20175;-81
2021/04/07 03:13:16;;;;;;;11.40;4.78;;;1.30;89.50;;;;;;5000535;28;20195;-82
2021/04/07 03:15:43;;;;;;;7.55;4.35;;;1.30;89.40;;;;;;5001023;28;20722;-81
2021/04/07 03:18:09;;;;;;;5.28;3.78;;;1.30;89.10;;;;;;5001185;28;20184;-82
2021/04/07 03:20:35;;;;;;;10.35;5.05;;;1.20;89.80;;;;;;5001805;28;20205;-81
2021/04/07 03:23:01;;;;;;;7.93;3.97;;;1.30;90.40;;;;;;5000521;28;20195;-82
2021/04/07 03:25:27;;;;;;;9.80;4.70;;;1.30;89.40;;;;;;5001316;28;20187;-82
2021/04/07 03:27:53;;;;;;;8.50;3.78;;;1.30;89.40;;;;;;5000799;28;20706;-82
2021/04/07 03:30:19;;;;;;;7.10;4.10;;;1.30;89.20;;;;;;5000749;28;20647;-82
2021/04/07 03:32:45;;;;;;;18.05;4.35;;;1.20;89.40;;;;;;5000657;28;20198;-81
2021/04/07 03:35:11;;;;;;;9.00;4.30;;;1.30;89.80;;;;;;5000237;28;20266;-81
2021/04/07 03:37:37;;;;;;;8.35;3.80;;;1.30;89.90;;;;;;4999896;28;20674;-81
2021/04/07 03:40:03;;;;;;;12.73;4.10;;;1.30;88.80;;;;;;5000485;28;20198;-81
2021/04/07 03:42:29;;;;;;;7.97;3.72;;;1.30;89.20;;;;;;5000134;28;20414;-81
2021/04/07 03:44:55;;;;;;;11.70;4.70;;;1.30;89.40;;;;;;5000697;28;20549;-81
2021/04/07 03:47:21;;;;;;;7.90;3.93;;;1.30;88.80;;;;;;4998832;28;20214;-81
2021/04/07 03:49:46;;;;;;;8.87;4.13;;;1.30;88.70;;;;;;5000024;28;20478;-81
2021/04/07 03:52:12;;;;;;;7.17;3.63;;;1.30;89.80;;;;;;4999241;28;20430;-81
2021/04/07 03:54:39;;;;;;;13.57;3.80;;;1.30;89.80;;;;;;5000073;28;20839;-81
2021/04/07 03:57:05;;;;;;;10.40;3.95;;;1.30;88.70;;;;;;4998730;28;20175;-81
2021/04/07 03:59:31;;;;;;;7.27;3.50;;;1.30;88.90;;;;;;5001439;28;20179;-80
2021/04/07 04:01:57;;;;;;;7.17;3.33;;;1.30;89.10;;;;;;5000282;28;20687;-80
2021/04/07 04:04:22;;;;;;;10.00;3.80;;;1.30;89.40;;;;;;5000335;28;20486;-81
2021/04/07 04:06:49;;;;;;;5.43;3.03;;;1.40;89.10;;;;;;5000015;28;20639;-80
2021/04/07 04:09:16;;;;;;;8.95;3.20;;;1.30;89.10;;;;;;4999731;28;20418;-81
2021/04/07 04:11:41;;;;;;;7.35;2.95;;;1.30;87.70;;;;;;5000150;28;20254;-80
2021/04/07 04:14:07;;;;;;;8.57;3.50;;;1.30;87.70;;;;;;5000346;28;20183;-80
2021/04/07 04:16:33;;;;;;;5.73;2.90;;;1.20;88.00;;;;;;5000655;28;20175;-81
2021/04/07 04:18:59;;;;;;;5.37;2.70;;;1.30;88.40;;;;;;5001034;28;20442;-81
2021/04/07 04:21:25;;;;;;;3.78;2.05;;;1.30;86.70;;;;;;5000070;28;20389;-80
2021/04/07 04:23:50;;;;;;;8.30;3.20;;;1.30;86.90;;;;;;4999756;28;20195;-80
2021/04/07 04:26:16;;;;;;;4.47;2.63;;;1.40;87.10;;;;;;4998273;28;20206;-80
2021/04/07 04:28:42;;;;;;;8.03;2.90;;;1.40;86.20;;;;;;4995477;28;20429;-80
2021/04/07 04:31:08;;;;;;;5.43;2.70;;;1.40;86.00;;;;;;4996357;28;20939;-79
2021/04/07 04:33:34;;;;;;;9.13;3.40;;;1.40;86.60;;;;;;4996093;28;20199;-79
2021/04/07 04:36:00;;;;;;;6.60;3.23;;;1.40;85.90;;;;;;4996129;28;20843;-80
2021/04/07 04:38:25;;;;;;;7.70;2.87;;;1.40;86.40;;;;;;4996327;28;20182;-80
2021/04/07 04:43:26;;;;;;;5.38;2.50;;;1.50;85.60;;;;;;5053540;28;20816;-81
2021/04/07 04:45:52;;;;;;;7.20;3.10;;;1.40;84.60;;;;;;5053523;28;20170;-81
2021/04/07 04:48:17;;;;;;;6.70;3.20;;;1.40;85.50;;;;;;5053183;28;20247;-81
2021/04/07 04:50:43;;;;;;;7.03;2.37;;;1.40;85.20;;;;;;5053093;28;20392;-80
2021/04/07 04:53:09;;;;;;;5.80;2.27;;;1.40;85.30;;;;;;5053658;28;20470;-82
2021/04/07 04:55:35;;;;;;;6.10;3.37;;;1.40;85.60;;;;;;5053975;28;20192;-82
2021/04/07 04:58:00;;;;;;;6.27;2.27;;;1.40;85.60;;;;;;5053382;28;20197;-82
2021/04/07 05:00:26;;;;;;;5.90;2.50;;;1.40;85.30;;;;;;5053354;28;21095;-81
2021/04/07 05:02:52;;;;;;;7.03;3.10;;;1.40;85.20;;;;;;5056601;28;20731;-81
2021/04/07 05:05:18;;;;;;;6.23;2.07;;;1.40;85.80;;;;;;5057476;28;20633;-82
2021/04/07 05:07:43;;;;;;;10.02;3.03;;;1.40;84.10;;;;;;5057011;28;20540;-82
2021/04/07 05:10:10;;;;;;;5.33;2.40;;;1.40;84.40;;;;;;5056696;28;20173;-81
2021/04/07 05:12:35;;;;;;;9.05;2.60;;;1.40;85.30;;;;;;5056492;28;20284;-81
2021/04/07 05:15:01;;;;;;;11.87;2.57;;;1.40;84.60;;;;;;5058022;28;20212;-81
2021/04/07 05:17:28;;;;;;;9.73;2.73;;;1.40;84.20;;;;;;5057597;28;20393;-82
2021/04/07 05:19:55;;;;;;;6.97;3.03;;;1.40;84.50;;;;;;5057151;28;20422;-81
2021/04/07 05:22:21;;;;;;;9.05;3.35;;;1.50;83.80;;;;;;5057305;28;20196;-81
2021/04/07 05:24:46;;;;;;;4.47;2.00;;;1.50;83.70;;;;;;5057952;28;20550;-80
2021/04/07 05:27:12;;;;;;;11.97;3.50;;;1.50;84.80;;;;;;5056413;28;20422;-81
2021/04/07 05:29:38;;;;;;;4.93;2.87;;;1.50;84.60;;;;;;5057433;28;20446;-82
2021/04/07 05:32:04;;;;;;;5.30;3.17;;;1.50;83.90;;;;;;5057167;28;20455;-81
2021/04/07 05:34:32;;;;;;;12.43;3.78;;;1.50;83.70;;;;;;5056657;28;20399;-82
2021/04/07 05:36:57;;;;;;;10.60;3.10;;;1.60;83.90;;;;;;5056430;28;20181;-83
2021/04/07 05:39:23;;;;;;;5.57;2.50;;;1.60;84.50;;;;;;5059007;28;20574;-82
2021/04/07 05:41:49;;;;;;;4.90;2.57;;;1.70;84.10;;;;;;5058798;28;20209;-82
2021/04/07 05:44:15;;;;;;;4.13;2.50;;;1.80;84.40;;;;;;5060098;28;20443;-81
2021/04/07 05:46:40;;;;;;;8.03;2.17;;;1.80;82.10;;;;;;5060277;28;20203;-82
2021/04/07 05:49:06;;;;;;;9.70;2.17;;;1.80;82.00;;;;;;5060347;28;20276;-83
2021/04/07 05:51:32;;;;;;;7.50;3.00;;;1.70;82.60;;;;;;5059970;28;20169;-81
2021/04/07 05:53:57;;;;;;;3.50;2.10;;;1.80;82.40;;;;;;5056899;28;20311;-82
2021/04/07 05:56:24;;;;;;;7.07;2.50;;;1.70;81.60;;;;;;5055802;28;20181;-81
2021/04/07 05:58:49;;;;;;;5.80;2.42;;;1.70;82.10;;;;;;5055999;28;20178;-81
2021/04/07 06:01:15;;;;;;;13.37;2.63;;;1.70;82.60;;;;;;5055936;28;20220;-81
2021/04/07 06:03:41;;;;;;;16.77;4.90;;;1.70;82.60;;;;;;5055473;28;20436;-81
2021/04/07 06:06:10;;;;;;;5.33;3.10;;;1.70;81.20;;;;;;5055840;28;20419;-80
2021/04/07 06:08:36;;;;;;;7.13;3.05;;;1.60;80.60;;;;;;5056067;28;20433;-81
2021/04/07 06:11:02;;;;;;;16.70;2.92;;;1.60;80.60;;;;;;5055668;28;20193;-80
2021/04/07 06:13:28;;;;;;;5.65;2.47;;;1.60;81.20;;;;;;5056602;28;20236;-81
2021/04/07 06:15:54;;;;;;;8.87;3.10;;;1.70;81.00;;;;;;5056660;28;20166;-82
2021/04/07 06:18:20;;;;;;;9.23;3.10;;;1.70;80.90;;;;;;5056800;28;20211;-81
2021/04/07 06:20:50;;;;;;;7.90;2.17;;;1.70;80.60;;;;;;5056509;28;20411;-81
2021/04/07 06:23:18;;;;;;;4.85;2.50;;;1.80;79.80;;;;;;5056034;28;20409;-81
2021/04/07 06:25:45;;;;;;;5.70;2.42;;;1.90;79.90;;;;;;5056672;28;20263;-81
2021/04/07 06:28:13;;;;;;;5.47;2.15;;;1.90;79.60;;;;;;5056829;28;20203;-81
2021/04/07 06:30:49;;;;;;;6.93;3.20;;;1.90;80.30;;;;;;5056125;28;20165;-81
2021/04/07 06:33:15;;;;;;;3.95;1.90;;;2.00;79.40;;;;;;5055655;28;20185;-80
2021/04/07 06:35:43;;;;;;;7.60;3.10;;;2.00;78.00;;;;;;5055113;28;20169;-81
2021/04/07 06:38:09;;;;;;;7.05;2.22;;;1.90;78.00;;;;;;5056093;28;20741;-81
2021/04/07 06:40:35;;;;;;;2.22;1.90;;;2.00;79.10;;;;;;5055486;28;20230;-81
2021/04/07 06:43:03;;;;;;;5.55;1.73;;;2.10;78.30;;;;;;5055041;28;20240;-83
2021/04/07 06:45:31;;;;;;;4.43;2.20;;;2.20;76.20;;;;;;5054397;28;20180;-81
2021/04/07 06:47:57;;;;;;;6.32;2.05;;;2.40;76.00;;;;;;5054989;28;20219;-82
2021/04/07 06:50:24;;;;;;;15.18;3.67;;;2.60;76.70;;;;;;5055287;28;20165;-82
2021/04/07 06:52:51;;;;;;;4.68;2.35;;;2.70;75.20;;;;;;5055469;28;20560;-81
2021/04/07 06:55:18;;;;;;;5.35;1.70;;;2.80;74.10;;;;;;5055170;28;20544;-82
2021/04/07 06:57:46;;;;;;;5.50;2.38;;;2.80;75.30;;;;;;5055444;28;20270;-82
2021/04/07 07:00:14;;;;;;;1.90;1.70;;;2.90;74.80;;;;;;5055013;28;20200;-81
2021/04/07 07:02:41;;;;;;;7.30;2.00;;;3.00;73.90;;;;;;5055114;28;20704;-81
2021/04/07 07:05:08;;;;;;;10.07;2.97;;;3.10;73.80;;;;;;5055150;28;20645;-81
2021/04/07 07:07:34;;;;;;;4.65;2.28;;;3.30;72.10;;;;;;5054937;28;20234;-82
2021/04/07 07:10:01;;;;;;;6.97;1.95;;;3.30;71.40;;;;;;5038344;28;20207;-82
2021/04/07 07:12:30;;;;;;;4.55;2.10;;;3.30;71.60;;;;;;5054421;28;20599;-81
2021/04/07 07:15:02;;;;;;;4.68;1.80;;;3.40;71.40;;;;;;5054248;28;20196;-80
2021/04/07 07:17:33;;;;;;;15.77;1.98;;;3.30;71.40;;;;;;5055280;28;20231;-80
2021/04/07 07:19:59;;;;;;;5.32;2.35;;;3.30;71.30;;;;;;5055241;28;20169;-79
2021/04/07 07:22:27;;;;;;;6.15;2.00;;;3.30;72.40;;;;;;5054868;28;20203;-80
2021/04/07 07:24:56;;;;;;;3.22;1.10;;;3.20;68.40;;;;;;5053862;28;20587;-80
2021/04/07 07:27:38;;;;;;;8.88;2.45;;;3.10;71.40;;;;;;5054500;28;20567;-81
2021/04/07 07:30:07;;;;;;;3.42;1.85;;;3.20;71.60;;;;;;5054092;28;20173;-80
2021/04/07 07:32:36;;;;;;;6.18;1.67;;;3.20;70.30;;;;;;5054649;28;20189;-80
2021/04/07 07:35:11;;;;;;;3.20;1.63;;;3.30;69.80;;;;;;5054228;28;20181;-80
2021/04/07 07:37:38;;;;;;;7.25;2.17;;;3.30;69.60;;;;;;5054775;28;20627;-81
2021/04/07 07:40:26;;;;;;;7.97;1.45;;;3.30;69.90;;;;;;5055148;28;20656;-81
2021/04/07 07:42:52;;;;;;;22.23;3.30;;;3.20;68.10;;;;;;5054385;28;20307;-82
2021/04/07 07:45:29;;;;;;;5.30;2.25;;;3.10;70.20;;;;;;5054876;28;20177;-81
2021/04/07 07:48:03;;;;;;;9.75;2.13;;;3.30;70.50;;;;;;5054662;28;20201;-82
2021/04/07 07:50:41;;;;;;;6.35;2.50;;;3.30;69.50;;;;;;5054388;28;20165;-82
2021/04/07 07:53:11;;;;;;;5.28;1.83;;;3.30;70.20;;;;;;5054780;28;20195;-80
2021/04/07 07:55:38;;;;;;;3.25;1.73;;;3.40;70.50;;;;;;5053802;28;20165;-80
2021/04/07 07:58:05;;;;;;;4.38;2.20;;;3.40;68.80;;;;;;5054536;28;20525;-80
2021/04/07 08:00:31;;;;;;;5.10;2.33;;;3.40;69.10;;;;;;5055000;28;20264;-81
2021/04/07 08:03:10;;;;;;;3.30;1.30;;;3.50;70.30;;;;;;5054254;28;20228;-80
2021/04/07 08:05:37;;;;;;;7.95;2.38;;;3.40;68.80;;;;;;5054049;28;20394;-80
2021/04/07 08:08:04;;;;;;;5.03;1.95;;;3.30;69.40;;;;;;5053523;28;20235;-80
2021/04/07 08:10:31;;;;;;;9.23;2.15;;;3.30;68.70;;;;;;5054086;28;20177;-80
2021/04/07 08:12:59;;;;;;;5.93;2.00;;;3.20;70.50;;;;;;5054192;28;20204;-80
2021/04/07 08:15:26;;;;;;;8.95;1.95;;;3.30;72.30;;;;;;5053717;28;20165;-79
2021/04/07 08:17:52;;;;;;;5.57;1.90;;;3.20;69.40;;;;;;5053778;28;20692;-80
2021/04/07 08:20:18;;;;;;;11.07;1.97;;;3.20;70.60;;;;;;5054441;28;20223;-80
2021/04/07 08:22:45;;;;;;;2.80;1.70;;;3.20;70.50;;;;;;5053867;28;20566;-81
2021/04/07 08:25:15;;;;;;;3.47;1.55;;;3.30;70.50;;;;;;5053746;28;20636;-80
2021/04/07 08:27:42;;;;;;;3.35;1.70;;;3.40;69.40;;;;;;5054270;28;20235;-80
2021/04/07 08:30:09;;;;;;;5.40;1.98;;;3.50;70.20;;;;;;5053981;28;20189;-82
2021/04/07 08:32:37;;;;;;;6.50;1.98;;;3.60;69.50;;;;;;5053859;28;20189;-81
2021/04/07 08:35:05;;;;;;;3.58;1.65;;;3.60;69.50;;;;;;5053990;28;20548;-82
2021/04/07 08:37:34;;;;;;;7.70;2.10;;;3.70;70.20;;;;;;5057366;28;20564;-81
2021/04/07 08:40:14;;;;;;;3.08;1.77;;;3.70;68.10;;;;;;5058140;28;20211;-81
2021/04/07 08:42:41;;;;;;;2.88;1.40;;;3.70;68.50;;;;;;5058006;28;20618;-81
2021/04/07 08:45:11;;;;;;;8.85;2.20;;;3.70;70.80;;;;;;5058206;28;20234;-82
2021/04/07 08:47:45;;;;;;;6.03;1.88;;;3.70;69.80;;;;;;5058427;28;20259;-82
2021/04/07 08:50:13;;;;;;;10.20;2.20;;;3.80;71.90;;;;;;5058935;28;20211;-82
2021/04/07 08:52:50;;;;;;;3.55;1.80;;;3.80;72.80;;;;;;5057994;28;20553;-81
2021/04/07 08:55:20;;;;;;;5.20;2.00;;;3.60;73.40;;;;;;5057803;28;20683;-81
2021/04/07 08:58:06;;;;;;;3.95;1.60;;;3.60;74.10;;;;;;5058056;28;20298;-81
2021/04/07 09:00:34;;;;;;;5.00;1.95;;;3.70;73.50;;;;;;5057530;28;20177;-80
2021/04/07 09:03:14;;;;;;;4.72;1.48;;;3.90;73.50;;;;;;5057645;28;20212;-80
2021/04/07 09:05:44;;;;;;;8.02;2.15;;;4.00;72.60;;;;;;5058345;28;20263;-81
2021/04/07 09:08:24;;;;;;;6.65;1.60;;;4.10;72.00;;;;;;5058314;28;20200;-80
2021/04/07 09:10:55;;;;;;;8.35;2.53;;;4.30;71.30;;;;;;5057799;28;20169;-80
2021/04/07 09:13:29;;;;;;;4.00;1.90;;;4.20;69.80;;;;;;5058602;28;20261;-80
2021/04/07 09:16:03;;;;;;;5.68;2.20;;;4.20;68.80;;;;;;5058190;28;20772;-81
2021/04/07 09:18:34;;;;;;;5.22;1.77;;;4.00;70.50;;;;;;5056948;28;20223;-81
2021/04/07 09:21:01;;;;;;;7.25;2.58;;;3.90;70.50;;;;;;5057306;28;20633;-80
2021/04/07 09:23:30;;;;;;;4.55;2.10;;;3.70;71.60;;;;;;5057094;28;20216;-81
2021/04/07 09:26:16;;;;;;;7.03;2.70;;;3.60;73.70;;;;;;5056783;28;20256;-80
2021/04/07 09:28:44;;;;;;;3.35;1.70;;;3.70;74.50;;;;;;5056862;28;20291;-80
2021/04/07 09:31:18;;;;;;;3.00;1.55;;;3.80;73.80;;;;;;5056929;28;20264;-82
2021/04/07 09:33:46;;;;;;;8.13;2.83;;;3.80;75.20;;;;;;5056608;28;20188;-80
2021/04/07 09:36:14;;;;;;;7.45;2.33;;;3.80;75.30;;;;;;5056346;28;20173;-80
2021/04/07 09:38:46;;;;;;;4.70;2.40;;;4.00;74.40;;;;;;5057068;28;20220;-81
2021/04/07 09:41:23;;;;;;;7.30;2.05;;;4.00;72.80;;;;;;5056969;28;20724;-81
2021/04/07 09:43:49;;;;;;;5.93;2.30;;;4.00;75.50;;;;;;5057344;28;20193;-81
2021/04/07 09:46:16;;;;;;;2.60;1.95;;;4.10;73.40;;;;;;5057281;28;20177;-80
2021/04/07 09:48:50;;;;;;;2.60;1.98;;;4.20;73.90;;;;;;5057029;28;20339;-80
2021/04/07 09:51:18;;;;;;;5.30;2.25;;;4.30;69.80;;;;;;5057037;28;20172;-80
2021/04/07 09:53:44;;;;;;;3.67;2.50;;;4.30;68.50;;;;;;5056059;28;20194;-80
2021/04/07 09:56:10;;;;;;;3.88;2.10;;;4.00;68.30;;;;;;5056773;28;20173;-80
2021/04/07 09:58:44;;;;;;;3.45;2.03;;;4.10;69.80;;;;;;5056855;28;20169;-80
2021/04/07 10:01:11;;;;;;;8.63;2.47;;;4.20;69.60;;;;;;5056769;28;20585;-80
2021/04/07 10:03:37;;;;;;;7.13;1.75;;;4.50;67.00;;;;;;5057270;28;20684;-81
2021/04/07 10:06:03;;;;;;;4.07;2.60;;;4.80;68.00;;;;;;5056236;28;20177;-81
2021/04/07 10:08:28;;;;;;;5.55;1.90;;;5.30;67.70;;;;;;5056522;28;20440;-82
2021/04/07 10:11:06;;;;;;;3.83;2.07;;;5.70;64.40;;;;;;5058109;28;20698;-81
2021/04/07 10:13:33;;;;;;;3.72;2.03;;;5.90;64.10;;;;;;5059010;28;20454;-82
2021/04/07 10:15:58;;;;;;;5.63;2.13;;;6.10;61.70;;;;;;5060510;28;20256;-80
2021/04/07 10:18:25;;;;;;;5.72;2.50;;;6.10;60.50;;;;;;5058603;28;20231;-82
2021/04/07 10:20:50;;;;;;;5.60;2.72;;;6.00;60.30;;;;;;5057889;28;20262;-81
2021/04/07 10:23:20;;;;;;;5.73;2.00;;;5.90;61.20;;;;;;5058204;28;20197;-81
2021/04/07 10:25:48;;;;;;;6.65;2.15;;;5.70;59.30;;;;;;5057866;28;20408;-80
2021/04/07 10:28:20;;;;;;;13.13;2.15;;;5.50;62.30;;;;;;5056391;28;20205;-81
2021/04/07 10:30:46;;;;;;;10.32;2.33;;;5.20;62.60;;;;;;5056853;28;20169;-80
2021/04/07 10:33:11;;;;;;;7.00;2.00;;;5.00;63.50;;;;;;5056547;28;20193;-80
2021/04/07 10:35:39;;;;;;;3.83;2.33;;;4.90;64.80;;;;;;5057043;28;20767;-84
2021/04/07 10:38:12;;;;;;;5.32;2.33;;;4.80;66.90;;;;;;5056659;28;20445;-81
2021/04/07 10:40:41;;;;;;;5.22;3.15;;;4.70;68.30;;;;;;5056306;28;20177;-82
2021/04/07 10:43:29;;;;;;;8.55;2.50;;;4.60;68.10;;;;;;5146137;22;20247;-81
2021/04/07 10:46:04;;;;;;;4.35;2.33;;;4.60;68.50;;;;;;5081821;28;20538;-81
2021/04/07 10:48:31;;;;;;;4.88;2.40;;;4.70;68.70;;;;;;5082875;28;20204;-81
2021/04/07 10:50:58;;;;;;;9.13;2.63;;;4.70;68.80;;;;;;5083369;28;20165;-84
2021/04/07 10:53:36;;;;;;;9.57;3.05;;;4.80;67.80;;;;;;5082137;28;20212;-84
2021/04/07 10:56:20;;;;;;;8.77;3.58;;;4.90;68.40;;;;;;5080907;28;20164;-82
2021/04/07 10:59:05;;;;;;;3.83;1.73;;;5.00;66.90;;;;;;5079679;28;20631;-82
2021/04/07 11:01:37;;;;;;;6.10;2.25;;;5.10;63.40;;;;;;5081606;28;20544;-82
2021/04/07 11:04:18;;;;;;;3.03;2.20;;;5.10;62.80;;;;;;5081634;28;20182;-82
2021/04/07 11:06:45;;;;;;;3.45;1.38;;;5.10;63.30;;;;;;5082193;28;20176;-81
2021/04/07 11:09:14;;;;;;;5.65;2.03;;;5.30;63.40;;;;;;5084642;28;20697;-84
2021/04/07 11:11:41;;;;;;;3.65;1.70;;;5.50;62.40;;;;;;5084396;28;20175;-84
2021/04/07 11:14:11;;;;;;;4.40;1.50;;;5.80;62.30;;;;;;5083837;28;20180;-84
2021/04/07 11:16:38;;;;;;;10.70;2.10;;;6.00;59.40;;;;;;5082577;28;20199;-84
2021/04/07 11:19:14;;;;;;;5.32;1.40;;;6.10;58.00;;;;;;5082388;28;20238;-84
2021/04/07 11:21:41;;;;;;;3.22;1.40;;;6.40;57.60;;;;;;5082352;28;20178;-84
2021/04/07 11:24:06;;;;;;;6.55;2.00;;;6.80;57.90;;;;;;5082069;28;20199;-84
2021/04/07 11:26:32;;;;;;;3.50;1.37;;;7.10;55.90;;;;;;5082385;28;20176;-84
2021/04/07 11:28:58;;;;;;;3.33;1.70;;;7.20;54.90;;;;;;5081693;28;20822;-83
2021/04/07 11:31:27;;;;;;;2.60;1.27;;;7.00;53.30;;;;;;5082415;28;20203;-84
2021/04/07 11:33:57;;;;;;;3.40;1.77;;;6.70;54.30;;;;;;5082596;28;20431;-84
2021/04/07 11:39:16;;;;;;;5.28;1.90;;;7.00;55.00;;;;;;5083572;28;20172;-84
2021/04/07 11:46:37;;;;;;;7.50;1.92;;;7.40;54.20;;;;;;5083604;28;20169;-83
2021/04/07 11:49:07;;;;;;;4.18;1.60;;;7.50;52.90;;;;;;5082939;28;20204;-83
2021/04/07 11:51:38;;;;;;;5.82;1.70;;;7.60;50.90;;;;;;5081783;28;20172;-84
2021/04/07 11:54:06;;;;;;;7.18;1.20;;;7.60;49.60;;;;;;5083783;28;20241;-85
2021/04/07 11:56:32;;;;;;;5.65;1.80;;;7.70;49.60;;;;;;5090189;28;20198;-86
2021/04/07 11:58:58;;;;;;;6.15;2.47;;;7.50;48.20;;;;;;5089325;28;20183;-85
2021/04/07 12:01:25;;;;;;;4.22;1.60;;;7.20;48.30;;;;;;5089202;28;20204;-85
2021/04/07 12:03:50;;;;;;;2.20;1.20;;;7.10;50.80;;;;;;5079460;28;20668;-82
2021/04/07 12:06:16;;;;;;;2.27;1.77;;;7.10;49.60;;;;;;5074334;28;20272;-82
2021/04/07 12:08:43;;;;;;;4.30;1.60;;;7.00;49.60;;;;;;5074571;28;20477;-80
2021/04/07 12:11:13;;;;;;;6.30;3.10;;;7.10;50.50;;;;;;5083824;28;20409;-81
2021/04/07 12:13:39;;;;;;;5.40;2.35;;;7.10;49.90;;;;;;5081290;28;20224;-81
2021/04/07 12:16:05;;;;;;;3.92;1.80;;;6.90;49.80;;;;;;5091343;28;20172;-85
2021/04/07 12:18:31;;;;;;;6.07;1.80;;;6.60;50.80;;;;;;5095914;28;20542;-82
2021/04/07 12:20:57;;;;;;;6.32;2.75;;;6.60;52.00;;;;;;5096083;28;20172;-85
2021/04/07 12:23:23;;;;;;;6.30;2.17;;;6.60;52.20;;;;;;5095846;28;20219;-85
2021/04/07 12:25:49;;;;;;;1.98;1.55;;;6.50;52.20;;;;;;5095667;28;20413;-83
2021/04/07 12:28:16;;;;;;;7.20;1.75;;;6.50;52.20;;;;;;5095039;28;20326;-83
2021/04/07 12:30:49;;;;;;;4.40;1.80;;;6.40;53.70;;;;;;5095943;28;20194;-85
2021/04/07 12:33:17;;;;;;;6.45;1.80;;;6.30;54.20;;;;;;5095839;28;20317;-82
2021/04/07 12:35:43;;;;;;;5.13;1.38;;;6.40;53.70;;;;;;5094678;28;20168;-83
2021/04/07 12:38:10;;;;;;;8.18;1.95;;;6.10;54.20;;;;;;5093309;28;20176;-84
2021/04/07 12:40:38;;;;;;;16.50;1.88;;;6.20;54.20;;;;;;5093971;28;20179;-85
2021/04/07 12:43:03;;;;;;;3.05;2.17;;;6.30;55.50;;;;;;5094575;28;20239;-85
2021/04/07 12:45:29;;;;;;;2.37;1.17;;;6.40;54.60;;;;;;5095979;28;20176;-84
2021/04/07 12:47:55;;;;;;;5.25;1.90;;;6.30;54.90;;;;;;5095005;28;20446;-84
2021/04/07 12:50:21;;;;;;;6.13;2.13;;;6.10;55.10;;;;;;5094910;28;20179;-83
2021/04/07 12:52:47;;;;;;;13.60;1.53;;;6.30;55.40;;;;;;5094173;28;20287;-83
2021/04/07 12:55:13;;;;;;;2.60;1.50;;;6.40;55.50;;;;;;5094844;28;20426;-83
2021/04/07 12:57:39;;;;;;;5.53;1.40;;;6.60;54.90;;;;;;5096094;28;20410;-82
2021/04/07 13:00:05;;;;;;;2.23;1.33;;;6.60;54.10;;;;;;5095624;28;20411;-85
2021/04/07 13:02:31;;;;;;;7.78;1.38;;;6.70;55.30;;;;;;5094533;28;20445;-86
2021/04/07 13:04:57;;;;;;;2.70;1.20;;;6.70;53.80;;;;;;5094377;28;20693;-86
2021/04/07 13:07:23;;;;;;;6.80;1.90;;;6.60;55.00;;;;;;5093757;28;20454;-85
2021/04/07 13:09:51;;;;;;;9.20;2.60;;;6.60;54.20;;;;;;5096799;28;20761;-85